createdAt,value
2023-02-08T00:01:43.640Z,0.70
2023-02-08T00:04:13.664Z,0.80
2023-02-08T00:06:42.696Z,0.80
2023-02-08T00:09:11.632Z,0.80
2023-02-08T00:11:40.613Z,0.80
2023-02-08T00:14:09.571Z,0.80
2023-02-08T00:16:38.286Z,0.80
2023-02-08T00:19:06.838Z,0.70
2023-02-08T00:21:36.889Z,0.70
2023-02-08T00:24:05.679Z,0.70
2023-02-08T00:26:34.563Z,0.70
2023-02-08T00:29:03.157Z,0.70
2023-02-08T00:31:31.916Z,0.70
2023-02-08T00:34:00.494Z,0.70
2023-02-08T00:36:29.010Z,0.70
2023-02-08T00:38:59.007Z,0.80
2023-02-08T00:41:27.899Z,0.70
2023-02-08T00:43:56.397Z,0.60
2023-02-08T00:46:25.014Z,0.60
2023-02-08T00:48:53.667Z,0.50
2023-02-08T00:51:22.154Z,0.60
2023-02-08T00:53:50.877Z,0.60
2023-02-08T00:56:20.773Z,0.60
2023-02-08T00:58:49.313Z,0.60
2023-02-08T01:01:17.959Z,0.60
2023-02-08T01:03:46.644Z,0.60
2023-02-08T01:06:17.767Z,0.60
2023-02-08T01:08:46.356Z,0.60
2023-02-08T01:11:17.773Z,0.60
2023-02-08T01:13:47.693Z,0.60
2023-02-08T01:16:17.973Z,0.60
2023-02-08T01:18:50.495Z,0.60
2023-02-08T01:21:21.036Z,0.60
2023-02-08T01:23:49.820Z,0.60
2023-02-08T01:26:20.036Z,0.60
2023-02-08T01:28:50.873Z,0.60
2023-02-08T01:31:21.067Z,0.60
2023-02-08T01:33:49.896Z,0.60
2023-02-08T01:36:18.813Z,0.60
2023-02-08T01:38:49.246Z,0.60
2023-02-08T01:41:19.718Z,0.50
2023-02-08T01:44:18.520Z,0.50
2023-02-08T01:46:48.856Z,0.50
2023-02-08T01:49:20.678Z,0.50
2023-02-08T01:51:51.585Z,0.50
2023-02-08T01:54:23.301Z,0.50
2023-02-08T01:56:52.880Z,0.50
2023-02-08T01:59:26.713Z,0.50
2023-02-08T02:01:57.803Z,0.50
2023-02-08T02:04:27.776Z,0.40
2023-02-08T02:06:59.246Z,0.40
2023-02-08T02:09:32.954Z,0.40
2023-02-08T02:12:02.426Z,0.40
2023-02-08T02:14:33.151Z,0.40
2023-02-08T02:17:02.490Z,0.40
2023-02-08T02:19:48.312Z,0.40
2023-02-08T02:22:46.638Z,0.40
2023-02-08T02:26:00.317Z,0.40
2023-02-08T02:29:01.015Z,0.40
2023-02-08T02:32:01.064Z,0.50
2023-02-08T02:34:38.782Z,0.50
2023-02-08T02:37:16.820Z,0.50
2023-02-08T02:39:54.776Z,0.50
2023-02-08T02:42:48.525Z,0.50
2023-02-08T02:45:23.969Z,0.40
2023-02-08T02:48:00.529Z,0.40
2023-02-08T02:50:34.811Z,0.40
2023-02-08T02:53:09.120Z,0.40
2023-02-08T02:55:43.566Z,0.40
2023-02-08T02:58:14.942Z,0.50
2023-02-08T03:00:43.819Z,0.50
2023-02-08T03:03:22.424Z,0.50
2023-02-08T03:05:52.103Z,0.50
2023-02-08T03:08:51.187Z,0.40
2023-02-08T03:11:23.324Z,0.40
2023-02-08T03:14:26.626Z,0.40
2023-02-08T03:17:21.563Z,0.50
2023-02-08T03:20:01.307Z,0.50
2023-02-08T03:22:41.672Z,0.50
2023-02-08T03:25:13.807Z,0.50
2023-02-08T03:27:50.705Z,0.40
2023-02-08T03:30:24.325Z,0.40
2023-02-08T03:32:57.515Z,0.40
2023-02-08T03:35:33.012Z,0.40
2023-02-08T03:38:04.548Z,0.50
2023-02-08T03:40:36.920Z,0.30
2023-02-08T03:43:10.066Z,0.40
2023-02-08T03:45:42.872Z,0.40
2023-02-08T03:48:15.378Z,0.40
2023-02-08T03:50:48.759Z,0.50
2023-02-08T03:53:22.048Z,0.40
2023-02-08T03:55:54.138Z,0.40
2023-02-08T03:58:27.381Z,0.30
2023-02-08T04:01:00.601Z,0.40
2023-02-08T04:03:31.942Z,0.30
2023-02-08T04:06:01.977Z,0.30
2023-02-08T04:08:30.598Z,0.30
2023-02-08T04:10:59.958Z,0.30
2023-02-08T04:13:28.521Z,0.30
2023-02-08T04:15:57.343Z,0.30
2023-02-08T04:18:26.138Z,0.30
2023-02-08T04:20:54.685Z,0.30
2023-02-08T04:23:24.730Z,0.30
2023-02-08T04:25:53.269Z,0.20
2023-02-08T04:28:21.765Z,0.20
2023-02-08T04:30:50.414Z,0.20
2023-02-08T04:33:19.082Z,0.30
2023-02-08T04:35:47.781Z,0.30
2023-02-08T04:38:16.382Z,0.40
2023-02-08T04:40:46.372Z,0.40
2023-02-08T04:43:14.966Z,0.30
2023-02-08T04:45:43.546Z,0.30
2023-02-08T04:48:12.150Z,0.30
2023-02-08T04:50:40.965Z,0.20
2023-02-08T04:53:09.672Z,0.30
2023-02-08T04:55:38.188Z,0.30
2023-02-08T04:58:08.137Z,0.30
2023-02-08T05:00:36.717Z,0.30
2023-02-08T05:03:05.789Z,0.30
2023-02-08T05:05:34.707Z,0.30
2023-02-08T05:08:03.885Z,0.30
2023-02-08T05:10:32.422Z,0.30
2023-02-08T05:13:01.126Z,0.30
2023-02-08T05:15:31.168Z,0.30
2023-02-08T05:18:00.056Z,0.30
2023-02-08T05:20:28.582Z,0.30
2023-02-08T05:22:57.193Z,0.30
2023-02-08T05:25:25.827Z,0.30
2023-02-08T05:27:54.488Z,0.30
2023-02-08T05:30:23.199Z,0.30
2023-02-08T05:32:53.211Z,0.30
2023-02-08T05:35:21.939Z,0.30
2023-02-08T05:37:50.673Z,0.40
2023-02-08T05:40:19.615Z,0.40
2023-02-08T05:42:48.641Z,0.40
2023-02-08T05:45:17.375Z,0.40
2023-02-08T05:47:47.664Z,0.50
2023-02-08T05:50:17.866Z,0.50
2023-02-08T05:52:46.423Z,0.60
2023-02-08T05:55:14.944Z,0.60
2023-02-08T05:57:43.527Z,0.50
2023-02-08T06:00:13.201Z,0.50
2023-02-08T06:02:41.917Z,0.50
2023-02-08T06:05:10.891Z,0.40
2023-02-08T06:07:41.042Z,0.40
2023-02-08T06:10:11.390Z,0.50
2023-02-08T06:12:40.247Z,0.50
2023-02-08T06:15:09.658Z,0.50
2023-02-08T06:17:38.204Z,0.50
2023-02-08T06:20:07.749Z,0.50
2023-02-08T06:22:36.870Z,0.50
2023-02-08T06:25:07.684Z,0.50
2023-02-08T06:27:36.445Z,0.50
2023-02-08T06:30:05.657Z,0.50
2023-02-08T06:32:34.269Z,0.50
2023-02-08T06:35:03.088Z,0.50
2023-02-08T06:37:31.704Z,0.60
2023-02-08T06:40:02.105Z,0.60
2023-02-08T06:42:32.105Z,0.60
2023-02-08T06:45:00.651Z,0.60
2023-02-08T06:47:29.463Z,0.60
2023-02-08T06:49:58.001Z,0.60
2023-02-08T06:52:26.590Z,0.60
2023-02-08T06:54:55.150Z,0.60
2023-02-08T06:57:23.761Z,0.70
2023-02-08T06:59:53.881Z,0.70
2023-02-08T07:02:23.403Z,0.70
2023-02-08T07:04:52.227Z,0.70
2023-02-08T07:07:20.856Z,0.80
2023-02-08T07:09:49.436Z,0.80
2023-02-08T07:12:17.994Z,0.80
2023-02-08T07:14:46.473Z,0.90
2023-02-08T07:17:16.454Z,0.90
2023-02-08T07:19:45.058Z,0.90
2023-02-08T07:22:13.657Z,1.00
2023-02-08T07:24:43.191Z,1.00
2023-02-08T07:27:13.969Z,1.10
2023-02-08T07:29:42.899Z,1.10
2023-02-08T07:32:14.197Z,1.10
2023-02-08T07:34:45.795Z,1.10
2023-02-08T07:37:17.862Z,1.10
2023-02-08T07:39:46.374Z,1.30
2023-02-08T07:42:15.143Z,1.20
2023-02-08T07:44:43.776Z,1.20
2023-02-08T07:47:12.332Z,1.30
2023-02-08T07:49:40.860Z,1.30
2023-02-08T07:52:10.797Z,1.30
2023-02-08T07:54:39.369Z,1.40
2023-02-08T07:57:08.308Z,1.50
2023-02-08T07:59:36.843Z,1.50
2023-02-08T08:02:05.922Z,1.50
2023-02-08T08:04:34.738Z,1.70
2023-02-08T08:07:03.638Z,1.70
2023-02-08T08:09:34.008Z,1.70
2023-02-08T08:12:03.011Z,1.80
2023-02-08T08:14:31.651Z,1.90
2023-02-08T08:17:00.268Z,1.90
2023-02-08T08:19:28.977Z,1.90
2023-02-08T08:21:57.489Z,2.00
2023-02-08T08:24:26.272Z,2.00
2023-02-08T08:26:56.245Z,2.10
2023-02-08T08:29:25.255Z,2.20
2023-02-08T08:31:53.859Z,2.30
2023-02-08T08:34:24.530Z,2.30
2023-02-08T08:36:53.234Z,2.30
2023-02-08T08:39:21.870Z,2.40
2023-02-08T08:41:50.819Z,2.40
2023-02-08T08:44:21.407Z,2.40
2023-02-08T08:46:49.956Z,2.40
2023-02-08T08:49:18.489Z,2.50
2023-02-08T08:51:49.030Z,2.50
2023-02-08T08:54:17.939Z,2.50
2023-02-08T08:56:46.464Z,2.50
2023-02-08T08:59:15.348Z,2.50
2023-02-08T09:01:45.422Z,2.50
2023-02-08T09:04:14.042Z,2.60
2023-02-08T09:06:42.568Z,2.60
2023-02-08T09:09:11.173Z,2.70
2023-02-08T09:11:40.078Z,2.80
2023-02-08T09:14:09.063Z,2.80
2023-02-08T09:16:38.004Z,2.80
2023-02-08T09:19:09.609Z,2.80
2023-02-08T09:21:38.664Z,2.90
2023-02-08T09:24:07.740Z,2.90
2023-02-08T09:26:36.623Z,3.10
2023-02-08T09:29:05.702Z,3.10
2023-02-08T09:31:37.897Z,3.10
2023-02-08T09:34:08.841Z,3.10
2023-02-08T09:36:40.239Z,3.10
2023-02-08T09:39:12.352Z,3.10
2023-02-08T09:41:59.804Z,3.10
2023-02-08T09:44:34.449Z,3.10
2023-02-08T09:47:11.705Z,3.20
2023-02-08T09:49:48.306Z,3.40
2023-02-08T09:52:22.554Z,3.40
2023-02-08T09:54:55.436Z,3.50
2023-02-08T09:57:30.095Z,3.50
2023-02-08T10:00:03.479Z,3.60
2023-02-08T10:02:34.103Z,3.60
2023-02-08T10:05:07.105Z,3.70
2023-02-08T10:07:37.863Z,3.60
2023-02-08T10:10:09.516Z,3.60
2023-02-08T10:12:50.127Z,3.60
2023-02-08T10:15:31.903Z,3.60
2023-02-08T10:18:24.685Z,3.60
2023-02-08T10:21:14.047Z,3.60
2023-02-08T10:24:05.270Z,3.60
2023-02-08T10:26:44.255Z,3.70
2023-02-08T10:29:34.052Z,3.70
2023-02-08T10:32:16.969Z,3.70
2023-02-08T10:34:49.020Z,3.80
2023-02-08T10:37:20.433Z,3.80
2023-02-08T10:39:51.204Z,3.80
2023-02-08T10:42:22.493Z,3.80
2023-02-08T10:45:06.546Z,3.90
2023-02-08T10:47:48.695Z,3.80
2023-02-08T10:50:24.708Z,3.80
2023-02-08T10:52:54.733Z,3.80
2023-02-08T10:55:23.650Z,3.70
2023-02-08T10:57:56.772Z,3.70
2023-02-08T11:00:28.181Z,3.50
2023-02-08T11:03:00.876Z,3.50
2023-02-08T11:05:37.731Z,3.50
2023-02-08T11:08:14.193Z,3.40
2023-02-08T11:10:47.096Z,3.30
2023-02-08T11:13:21.962Z,3.20
2023-02-08T11:15:56.765Z,3.20
2023-02-08T11:18:27.408Z,3.20
2023-02-08T11:21:00.136Z,3.20
2023-02-08T11:23:32.453Z,3.20
2023-02-08T11:26:18.339Z,3.20
2023-02-08T11:28:59.823Z,3.20
2023-02-08T11:31:28.761Z,3.20
2023-02-08T11:34:02.650Z,3.30
2023-02-08T11:36:34.612Z,3.30
2023-02-08T11:39:17.103Z,3.30
2023-02-08T11:41:46.962Z,3.30
2023-02-08T11:44:22.800Z,3.40
2023-02-08T11:46:56.070Z,3.40
2023-02-08T11:49:26.253Z,3.50
2023-02-08T11:51:55.426Z,3.50
2023-02-08T11:54:41.480Z,3.50
2023-02-08T11:57:16.483Z,3.60
2023-02-08T11:59:45.066Z,3.70
2023-02-08T12:02:38.481Z,3.90
2023-02-08T12:05:15.031Z,4.00
2023-02-08T12:07:58.259Z,4.00
2023-02-08T12:10:46.892Z,4.00
2023-02-08T12:13:33.916Z,4.10
2023-02-08T12:16:17.896Z,4.10
2023-02-08T12:18:56.791Z,4.20
2023-02-08T12:21:29.820Z,4.20
2023-02-08T12:24:03.635Z,4.20
2023-02-08T12:26:51.593Z,4.20
2023-02-08T12:29:47.299Z,4.20
2023-02-08T12:32:34.036Z,4.10
2023-02-08T12:35:48.081Z,4.10
2023-02-08T12:38:52.492Z,4.10
2023-02-08T12:41:29.889Z,4.00
2023-02-08T12:44:09.076Z,4.00
2023-02-08T12:46:58.359Z,4.00
2023-02-08T12:49:52.666Z,4.00
2023-02-08T12:52:31.822Z,4.00
2023-02-08T12:55:04.518Z,4.00
2023-02-08T12:57:34.070Z,3.90
2023-02-08T13:00:08.928Z,3.90
2023-02-08T13:02:45.121Z,3.90
2023-02-08T13:05:19.485Z,3.90
2023-02-08T13:07:50.669Z,4.00
2023-02-08T13:10:28.223Z,4.00
2023-02-08T13:13:01.498Z,4.00
2023-02-08T13:15:38.875Z,4.00
2023-02-08T13:18:16.187Z,3.80
2023-02-08T13:20:48.529Z,3.80
2023-02-08T13:23:24.071Z,3.60
2023-02-08T13:25:56.251Z,3.40
2023-02-08T13:28:27.153Z,3.20
2023-02-08T13:31:05.331Z,2.90
2023-02-08T13:33:55.574Z,2.60
2023-02-08T13:36:32.767Z,2.40
2023-02-08T13:39:03.294Z,2.10
2023-02-08T13:41:33.737Z,1.90
2023-02-08T13:44:05.204Z,1.80
2023-02-08T13:46:45.238Z,1.80
2023-02-08T13:49:45.605Z,1.80
2023-02-08T13:52:46.920Z,1.80
2023-02-08T13:55:53.534Z,1.80
2023-02-08T13:58:38.642Z,1.70
2023-02-08T14:01:19.717Z,1.80
2023-02-08T14:04:30.113Z,1.80
2023-02-08T14:07:06.327Z,1.70
2023-02-08T14:09:54.693Z,1.50
2023-02-08T14:12:29.259Z,1.40
2023-02-08T14:15:09.824Z,1.30
2023-02-08T14:17:38.409Z,1.20
2023-02-08T14:20:08.725Z,1.10
2023-02-08T14:22:40.719Z,1.00
2023-02-08T14:25:19.258Z,0.90
2023-02-08T14:27:55.296Z,0.80
2023-02-08T14:30:28.697Z,0.70
2023-02-08T14:33:16.543Z,0.60
2023-02-08T14:35:54.262Z,0.70
2023-02-08T14:38:54.373Z,0.60
2023-02-08T14:41:45.924Z,0.60
2023-02-08T14:44:54.301Z,0.50
2023-02-08T14:48:05.371Z,0.60
2023-02-08T14:50:50.180Z,0.60
2023-02-08T14:53:25.579Z,0.50
2023-02-08T14:55:59.583Z,0.40
2023-02-08T14:58:34.448Z,0.40
2023-02-08T15:01:08.095Z,0.30
2023-02-08T15:03:37.558Z,0.20
2023-02-08T15:06:32.335Z,0.20
2023-02-08T15:09:01.437Z,0.10
2023-02-08T15:11:32.436Z,0.00
2023-02-08T15:14:04.326Z,-0.10
2023-02-08T15:16:36.599Z,-0.10
2023-02-08T15:19:09.233Z,-0.30
2023-02-08T15:21:41.295Z,-0.30
2023-02-08T15:24:17.786Z,-0.40
2023-02-08T15:26:48.010Z,-0.50
2023-02-08T15:29:24.636Z,-0.60
2023-02-08T15:31:56.168Z,-0.70
2023-02-08T15:34:27.281Z,-0.80
2023-02-08T15:36:58.276Z,-0.80
2023-02-08T15:39:35.101Z,-1.00
2023-02-08T15:42:04.129Z,-1.00
2023-02-08T15:44:35.239Z,-1.00
2023-02-08T15:47:06.196Z,-1.20
2023-02-08T15:49:37.987Z,-1.30
2023-02-08T15:52:10.196Z,-1.40
2023-02-08T15:54:38.861Z,-1.50
2023-02-08T15:57:18.163Z,-1.50
2023-02-08T15:59:48.754Z,-1.60
2023-02-08T16:02:26.214Z,-1.70
2023-02-08T16:04:54.923Z,-1.80
2023-02-08T16:07:32.837Z,-1.90
2023-02-08T16:10:02.132Z,-1.90
2023-02-08T16:12:31.696Z,-2.00
2023-02-08T16:15:00.643Z,-2.00
2023-02-08T16:17:38.100Z,-2.00
2023-02-08T16:20:28.652Z,-2.10
2023-02-08T16:23:02.159Z,-2.20
2023-02-08T16:25:38.014Z,-2.20
2023-02-08T16:28:07.862Z,-2.30
2023-02-08T16:30:36.635Z,-2.30
2023-02-08T16:33:10.306Z,-2.40
2023-02-08T16:35:41.144Z,-2.40
2023-02-08T16:38:12.039Z,-2.50
2023-02-08T16:40:49.253Z,-2.50
2023-02-08T16:43:19.940Z,-2.60
2023-02-08T16:46:08.989Z,-2.70
2023-02-08T16:48:39.491Z,-2.70
2023-02-08T16:51:15.291Z,-2.70
2023-02-08T16:53:48.362Z,-2.80
2023-02-08T16:56:17.146Z,-2.80
2023-02-08T16:58:45.954Z,-2.90
2023-02-08T17:01:15.817Z,-2.90
2023-02-08T17:03:44.484Z,-2.90
2023-02-08T17:06:25.198Z,-2.90
2023-02-08T17:08:55.126Z,-3.00
2023-02-08T17:11:23.720Z,-2.90
2023-02-08T17:13:53.144Z,-3.00
2023-02-08T17:16:23.976Z,-3.00
2023-02-08T17:18:53.065Z,-3.00
2023-02-08T17:21:22.102Z,-3.00
2023-02-08T17:23:51.799Z,-3.00
2023-02-08T17:26:27.582Z,-3.00
2023-02-08T17:28:56.473Z,-3.00
2023-02-08T17:31:25.787Z,-3.20
2023-02-08T17:33:54.516Z,-3.20
2023-02-08T17:36:23.287Z,-3.20
2023-02-08T17:38:52.516Z,-3.30
2023-02-08T17:41:23.073Z,-3.40
2023-02-08T17:43:52.385Z,-3.40
2023-02-08T17:46:23.021Z,-3.40
2023-02-08T17:48:51.857Z,-3.50
2023-02-08T17:51:22.590Z,-3.50
2023-02-08T17:53:51.436Z,-3.60
2023-02-08T17:56:23.561Z,-3.60
2023-02-08T17:58:53.959Z,-3.60
2023-02-08T18:01:24.607Z,-3.70
2023-02-08T18:03:54.425Z,-3.70
2023-02-08T18:06:25.426Z,-3.70
2023-02-08T18:08:54.884Z,-3.80
2023-02-08T18:11:24.989Z,-3.80
2023-02-08T18:13:55.285Z,-3.80
2023-02-08T18:16:25.609Z,-3.80
2023-02-08T18:18:56.990Z,-3.80
2023-02-08T18:21:26.735Z,-3.80
2023-02-08T18:23:55.858Z,-3.90
2023-02-08T18:26:26.548Z,-3.90
2023-02-08T18:28:55.468Z,-3.80
2023-02-08T18:31:25.641Z,-3.80
2023-02-08T18:33:54.531Z,-3.90
2023-02-08T18:36:24.434Z,-4.00
2023-02-08T18:38:55.966Z,-4.00
2023-02-08T18:41:27.817Z,-4.00
2023-02-08T18:43:57.825Z,-4.10
2023-02-08T18:46:28.016Z,-4.10
2023-02-08T18:48:57.031Z,-4.10
2023-02-08T18:51:27.713Z,-4.10
2023-02-08T18:53:57.613Z,-4.20
2023-02-08T18:56:29.446Z,-4.20
2023-02-08T18:59:00.856Z,-4.20
2023-02-08T19:01:29.497Z,-4.20
2023-02-08T19:03:58.985Z,-4.30
2023-02-08T19:06:30.544Z,-4.30
2023-02-08T19:09:02.648Z,-4.30
2023-02-08T19:11:53.667Z,-4.30
2023-02-08T19:14:22.641Z,-4.30
2023-02-08T19:16:51.233Z,-4.30
2023-02-08T19:19:19.779Z,-4.30
2023-02-08T19:21:48.337Z,-4.30
2023-02-08T19:24:16.903Z,-4.40
2023-02-08T19:26:47.398Z,-4.30
2023-02-08T19:29:18.194Z,-4.40
2023-02-08T19:31:48.686Z,-4.40
2023-02-08T19:34:18.935Z,-4.40
2023-02-08T19:36:51.897Z,-4.50
2023-02-08T19:39:24.565Z,-4.50
2023-02-08T19:41:55.204Z,-4.50
2023-02-08T19:44:24.149Z,-4.50
2023-02-08T19:46:55.294Z,-4.50
2023-02-08T19:49:26.065Z,-4.60
2023-02-08T19:51:55.402Z,-4.60
2023-02-08T19:54:24.362Z,-4.50
2023-02-08T19:56:56.126Z,-4.60
2023-02-08T19:59:26.518Z,-4.60
2023-02-08T20:01:56.141Z,-4.50
2023-02-08T20:04:25.689Z,-4.50
2023-02-08T20:06:55.199Z,-4.50
2023-02-08T20:09:23.848Z,-4.50
2023-02-08T20:11:57.240Z,-4.50
2023-02-08T20:14:27.398Z,-4.60
2023-02-08T20:16:56.078Z,-4.60
2023-02-08T20:19:25.229Z,-4.70
2023-02-08T20:21:54.374Z,-4.70
2023-02-08T20:24:23.001Z,-4.80
2023-02-08T20:26:51.968Z,-4.80
2023-02-08T20:29:22.887Z,-4.80
2023-02-08T20:31:55.967Z,-4.70
2023-02-08T20:34:25.201Z,-4.80
2023-02-08T20:37:06.270Z,-4.80
2023-02-08T20:39:37.399Z,-4.70
2023-02-08T20:42:07.218Z,-4.60
2023-02-08T20:44:37.721Z,-4.70
2023-02-08T20:47:06.608Z,-4.70
2023-02-08T20:49:35.751Z,-4.70
2023-02-08T20:52:04.450Z,-4.80
2023-02-08T20:54:33.327Z,-4.70
2023-02-08T20:57:02.205Z,-4.80
2023-02-08T20:59:31.174Z,-4.80
2023-02-08T21:02:01.307Z,-4.80
2023-02-08T21:04:30.030Z,-4.80
2023-02-08T21:06:58.746Z,-4.90
2023-02-08T21:09:27.925Z,-5.10
2023-02-08T21:11:56.646Z,-4.90
2023-02-08T21:14:25.464Z,-4.90
2023-02-08T21:16:58.751Z,-4.90
2023-02-08T21:19:31.163Z,-5.00
2023-02-08T21:22:01.136Z,-5.00
2023-02-08T21:24:31.061Z,-5.00
2023-02-08T21:27:01.213Z,-5.00
2023-02-08T21:29:32.824Z,-5.00
2023-02-08T21:32:07.856Z,-5.00
2023-02-08T21:34:38.077Z,-5.00
2023-02-08T21:37:07.176Z,-5.00
2023-02-08T21:39:38.275Z,-5.00
2023-02-08T21:42:12.586Z,-5.00
2023-02-08T21:44:41.398Z,-5.10
2023-02-08T21:47:09.981Z,-5.10
2023-02-08T21:49:57.541Z,-5.10
2023-02-08T21:52:43.712Z,-5.10
2023-02-08T21:59:08.251Z,-5.20
2023-02-08T22:01:36.863Z,-5.30
2023-02-08T22:04:06.339Z,-5.30
2023-02-08T22:06:36.438Z,-5.30
2023-02-08T22:09:10.430Z,-5.30
2023-02-08T22:11:39.080Z,-5.60
2023-02-08T22:14:08.266Z,-5.30
2023-02-08T22:16:37.089Z,-5.40
2023-02-08T22:19:09.406Z,-5.30
2023-02-08T22:21:39.602Z,-5.30
2023-02-08T22:24:11.262Z,-5.40
2023-02-08T22:26:40.425Z,-5.30
2023-02-08T22:29:08.974Z,-5.30
2023-02-08T22:31:37.782Z,-5.30
2023-02-08T22:34:06.907Z,-5.30
2023-02-08T22:36:35.666Z,-5.40
2023-02-08T22:39:05.914Z,-5.40
2023-02-08T22:41:37.990Z,-5.40
2023-02-08T22:44:07.059Z,-5.40
2023-02-08T22:46:36.108Z,-5.40
2023-02-08T22:49:04.970Z,-5.50
2023-02-08T22:51:34.047Z,-5.40
2023-02-08T22:54:07.412Z,-5.40
2023-02-08T22:56:36.578Z,-5.50
2023-02-08T22:59:05.377Z,-5.50
2023-02-08T23:01:33.977Z,-5.50
2023-02-08T23:04:02.589Z,-5.60
2023-02-08T23:06:31.287Z,-5.60
2023-02-08T23:09:00.148Z,-5.50
2023-02-08T23:11:30.655Z,-5.50
2023-02-08T23:13:59.314Z,-5.50
2023-02-08T23:16:27.976Z,-5.40
2023-02-08T23:18:56.583Z,-5.40
2023-02-08T23:21:25.292Z,-5.40
2023-02-08T23:23:55.493Z,-5.40
2023-02-08T23:26:24.714Z,-5.40
2023-02-08T23:28:55.464Z,-5.40
2023-02-08T23:31:24.885Z,-5.40
2023-02-08T23:33:53.532Z,-5.40
2023-02-08T23:36:23.947Z,-5.40
2023-02-08T23:38:52.946Z,-5.30
2023-02-08T23:41:23.356Z,-5.30
2023-02-08T23:43:54.984Z,-5.30
2023-02-08T23:46:25.724Z,-5.30
2023-02-08T23:48:54.552Z,-5.20
2023-02-08T23:51:28.409Z,-5.20
2023-02-08T23:53:58.324Z,-4.90
2023-02-08T23:56:30.438Z,-5.20
2023-02-08T23:59:08.561Z,-5.30
